createdAt,value
2022-09-23T00:00:00.925Z,9.00
2022-09-23T00:01:12.029Z,8.50
2022-09-23T00:02:19.602Z,6.80
2022-09-23T00:03:27.241Z,6.90
2022-09-23T00:04:34.714Z,8.80
2022-09-23T00:05:42.344Z,8.00
2022-09-23T00:06:53.298Z,7.60
2022-09-23T00:08:03.673Z,8.20
2022-09-23T00:09:15.493Z,6.70
2022-09-23T00:10:24.097Z,8.10
2022-09-23T00:11:31.947Z,11.30
2022-09-23T00:12:39.352Z,8.90
2022-09-23T00:13:49.768Z,9.00
2022-09-23T00:14:57.195Z,7.80
2022-09-23T00:16:06.329Z,9.00
2022-09-23T00:17:14.032Z,8.90
2022-09-23T00:18:22.534Z,6.70
2022-09-23T00:19:30.783Z,6.60
2022-09-23T00:20:38.424Z,10.10
2022-09-23T00:21:48.002Z,6.30
2022-09-23T00:22:55.603Z,8.70
2022-09-23T00:24:03.750Z,10.10
2022-09-23T00:25:12.096Z,13.70
2022-09-23T00:26:20.226Z,9.30
2022-09-23T00:27:27.964Z,6.50
2022-09-23T00:28:35.656Z,7.30
2022-09-23T00:29:47.580Z,6.40
2022-09-23T00:30:55.079Z,6.80
2022-09-23T00:32:02.574Z,7.30
2022-09-23T00:33:11.892Z,6.80
2022-09-23T00:34:19.834Z,9.30
2022-09-23T00:35:27.243Z,7.20
2022-09-23T00:36:34.514Z,10.20
2022-09-23T00:37:41.894Z,7.70
2022-09-23T00:38:50.931Z,7.50
2022-09-23T00:39:58.527Z,7.30
2022-09-23T00:41:05.843Z,6.90
2022-09-23T00:42:17.596Z,7.80
2022-09-23T00:43:47.290Z,7.30
2022-09-23T00:45:00.579Z,7.80
2022-09-23T00:46:11.737Z,6.40
2022-09-23T00:47:24.226Z,9.90
2022-09-23T00:48:31.633Z,7.40
2022-09-23T00:49:39.009Z,8.40
2022-09-23T00:50:47.397Z,7.60
2022-09-23T00:52:02.536Z,9.30
2022-09-23T00:53:11.009Z,8.00
2022-09-23T00:54:18.241Z,8.20
2022-09-23T00:55:32.866Z,9.20
2022-09-23T00:56:41.960Z,6.50
2022-09-23T00:57:50.103Z,8.20
2022-09-23T00:58:57.271Z,8.20
2022-09-23T01:00:05.377Z,8.90
2022-09-23T01:01:15.129Z,8.10
2022-09-23T01:02:25.776Z,7.40
2022-09-23T01:03:33.319Z,8.20
2022-09-23T01:04:40.659Z,8.30
2022-09-23T01:05:47.924Z,8.50
2022-09-23T01:06:55.070Z,8.80
2022-09-23T01:08:03.008Z,6.50
2022-09-23T01:09:10.289Z,7.80
2022-09-23T01:10:17.656Z,7.70
2022-09-23T01:11:28.404Z,8.50
2022-09-23T01:13:01.396Z,7.30
2022-09-23T01:14:52.927Z,6.30
2022-09-23T01:16:10.524Z,7.00
2022-09-23T01:17:34.316Z,6.50
2022-09-23T01:19:05.256Z,7.90
2022-09-23T01:20:27.233Z,6.70
2022-09-23T01:21:46.981Z,7.80
2022-09-23T01:23:13.700Z,7.30
2022-09-23T01:24:33.592Z,11.10
2022-09-23T01:26:05.576Z,12.20
2022-09-23T01:27:28.773Z,10.00
2022-09-23T01:28:45.360Z,10.10
2022-09-23T01:30:08.240Z,5.90
2022-09-23T01:31:20.170Z,10.50
2022-09-23T01:32:37.068Z,10.10
2022-09-23T01:34:07.650Z,6.60
2022-09-23T01:35:31.887Z,11.60
2022-09-23T01:37:02.775Z,10.10
2022-09-23T01:38:42.066Z,7.40
2022-09-23T01:40:17.718Z,10.60
2022-09-23T01:41:47.438Z,6.30
2022-09-23T01:43:38.675Z,12.10
2022-09-23T01:44:49.606Z,16.00
2022-09-23T01:45:57.917Z,7.80
2022-09-23T01:47:12.321Z,9.60
2022-09-23T01:49:13.036Z,8.70
2022-09-23T01:50:52.869Z,8.90
2022-09-23T01:52:12.175Z,8.60
2022-09-23T01:53:38.686Z,6.60
2022-09-23T01:55:13.296Z,8.10
2022-09-23T01:56:31.263Z,6.70
2022-09-23T01:57:50.198Z,8.40
2022-09-23T01:59:10.765Z,8.10
2022-09-23T02:00:19.271Z,6.30
2022-09-23T02:01:40.794Z,6.40
2022-09-23T02:02:54.005Z,6.20
2022-09-23T02:04:10.170Z,8.30
2022-09-23T02:05:23.703Z,8.50
2022-09-23T02:06:49.430Z,6.10
2022-09-23T02:08:03.321Z,7.20
2022-09-23T02:09:22.031Z,6.40
2022-09-23T02:10:38.865Z,9.10
2022-09-23T02:11:47.639Z,9.80
2022-09-23T02:12:58.809Z,6.70
2022-09-23T02:14:31.353Z,7.60
2022-09-23T02:15:41.826Z,6.80
2022-09-23T02:16:53.627Z,7.40
2022-09-23T02:18:24.257Z,9.40
2022-09-23T02:20:04.181Z,6.30
2022-09-23T02:21:11.253Z,7.90
2022-09-23T02:22:37.488Z,11.50
2022-09-23T02:23:47.975Z,8.50
2022-09-23T02:24:55.958Z,9.10
2022-09-23T02:26:21.844Z,6.90
2022-09-23T02:27:29.628Z,6.90
2022-09-23T02:28:52.810Z,6.40
2022-09-23T02:30:36.339Z,6.50
2022-09-23T02:31:51.207Z,9.50
2022-09-23T02:33:05.954Z,6.20
2022-09-23T02:34:32.750Z,7.80
2022-09-23T02:36:22.135Z,7.50
2022-09-23T02:37:48.966Z,7.50
2022-09-23T02:38:58.776Z,6.70
2022-09-23T02:40:32.589Z,9.50
2022-09-23T02:41:51.926Z,8.10
2022-09-23T02:43:21.611Z,7.40
2022-09-23T02:44:30.811Z,7.10
2022-09-23T02:45:42.367Z,8.50
2022-09-23T02:46:50.046Z,6.30
2022-09-23T02:48:01.857Z,7.70
2022-09-23T02:49:16.251Z,8.10
2022-09-23T02:50:24.349Z,8.50
2022-09-23T02:51:40.464Z,8.10
2022-09-23T02:52:49.912Z,9.50
2022-09-23T02:53:59.461Z,7.90
2022-09-23T02:55:08.280Z,7.60
2022-09-23T02:56:20.994Z,7.00
2022-09-23T02:57:28.666Z,11.70
2022-09-23T02:58:36.694Z,8.60
2022-09-23T02:59:44.079Z,6.90
2022-09-23T03:01:10.319Z,8.90
2022-09-23T03:02:18.757Z,8.00
2022-09-23T03:03:35.279Z,9.50
2022-09-23T03:05:17.206Z,8.30
2022-09-23T03:06:34.618Z,7.70
2022-09-23T03:08:03.834Z,7.30
2022-09-23T03:09:39.872Z,5.90
2022-09-23T03:10:58.911Z,6.70
2022-09-23T03:12:42.436Z,8.40
2022-09-23T03:14:06.503Z,7.40
2022-09-23T03:15:29.597Z,8.00
2022-09-23T03:16:55.094Z,9.30
2022-09-23T03:18:10.534Z,8.00
2022-09-23T03:19:37.168Z,6.90
2022-09-23T03:20:51.884Z,7.00
2022-09-23T03:22:16.598Z,5.90
2022-09-23T03:23:26.447Z,6.10
2022-09-23T03:24:33.990Z,7.20
2022-09-23T03:25:42.146Z,6.20
2022-09-23T03:26:49.663Z,6.50
2022-09-23T03:28:02.042Z,8.80
2022-09-23T03:29:13.809Z,7.10
2022-09-23T03:30:23.300Z,6.40
2022-09-23T03:31:31.538Z,9.60
2022-09-23T03:32:39.820Z,6.90
2022-09-23T03:33:54.409Z,10.80
2022-09-23T03:35:03.868Z,10.30
2022-09-23T03:36:30.803Z,10.10
2022-09-23T03:38:04.217Z,8.00
2022-09-23T03:39:14.435Z,9.10
2022-09-23T03:40:28.452Z,7.40
2022-09-23T03:41:42.098Z,7.20
2022-09-23T03:42:52.616Z,7.80
2022-09-23T03:44:00.252Z,7.80
2022-09-23T03:45:10.863Z,8.80
2022-09-23T03:46:21.169Z,8.60
2022-09-23T03:47:30.995Z,7.60
2022-09-23T03:48:40.845Z,9.20
2022-09-23T03:49:50.494Z,7.90
2022-09-23T03:50:57.947Z,8.00
2022-09-23T03:52:05.577Z,7.10
2022-09-23T03:53:15.961Z,6.30
2022-09-23T03:54:23.480Z,10.30
2022-09-23T03:55:30.965Z,8.70
2022-09-23T03:56:38.958Z,8.30
2022-09-23T03:57:46.632Z,8.20
2022-09-23T03:58:55.325Z,6.70
2022-09-23T04:00:02.718Z,7.30
2022-09-23T04:01:18.970Z,7.00
2022-09-23T04:02:28.610Z,8.50
2022-09-23T04:03:37.939Z,8.60
2022-09-23T04:04:45.928Z,8.00
2022-09-23T04:05:53.639Z,9.10
2022-09-23T04:07:01.121Z,6.80
2022-09-23T04:08:08.591Z,10.70
2022-09-23T04:09:15.877Z,7.60
2022-09-23T04:10:23.130Z,9.10
2022-09-23T04:11:30.842Z,8.00
2022-09-23T04:12:38.316Z,7.00
2022-09-23T04:13:45.577Z,8.00
2022-09-23T04:14:52.728Z,7.30
2022-09-23T04:16:00.062Z,11.70
2022-09-23T04:17:07.363Z,8.60
2022-09-23T04:18:15.022Z,8.30
2022-09-23T04:19:22.400Z,10.80
2022-09-23T04:20:30.274Z,13.60
2022-09-23T04:21:37.858Z,8.90
2022-09-23T04:22:45.335Z,8.10
2022-09-23T04:23:52.895Z,11.30
2022-09-23T04:25:03.571Z,9.50
2022-09-23T04:26:11.239Z,9.60
2022-09-23T04:27:19.232Z,7.20
2022-09-23T04:28:26.712Z,7.90
2022-09-23T04:29:34.068Z,7.80
2022-09-23T04:30:45.188Z,8.90
2022-09-23T04:31:52.702Z,9.30
2022-09-23T04:33:00.225Z,9.70
2022-09-23T04:34:07.302Z,8.50
2022-09-23T04:35:14.932Z,7.70
2022-09-23T04:36:22.621Z,7.60
2022-09-23T04:37:30.691Z,8.00
2022-09-23T04:38:37.867Z,9.20
2022-09-23T04:39:45.442Z,7.50
2022-09-23T04:40:52.859Z,6.30
2022-09-23T04:42:01.188Z,10.20
2022-09-23T04:43:12.861Z,13.50
2022-09-23T04:44:22.624Z,8.60
2022-09-23T04:45:31.538Z,7.20
2022-09-23T04:46:40.585Z,9.20
2022-09-23T04:47:48.585Z,11.40
2022-09-23T04:48:55.954Z,7.60
2022-09-23T04:50:03.268Z,9.30
2022-09-23T04:51:18.348Z,8.00
2022-09-23T04:52:25.713Z,9.70
2022-09-23T04:53:33.263Z,8.20
2022-09-23T04:54:40.846Z,7.10
2022-09-23T04:55:53.838Z,9.60
2022-09-23T04:57:03.040Z,8.00
2022-09-23T04:58:11.250Z,11.10
2022-09-23T04:59:18.694Z,7.10
2022-09-23T05:00:27.981Z,9.10
2022-09-23T05:01:36.645Z,9.80
2022-09-23T05:02:47.280Z,23.20
2022-09-23T05:03:55.557Z,7.90
2022-09-23T05:05:02.673Z,9.20
2022-09-23T05:06:10.300Z,9.10
2022-09-23T05:07:20.391Z,11.10
2022-09-23T05:08:27.961Z,11.70
2022-09-23T05:09:35.171Z,6.80
2022-09-23T05:10:43.091Z,9.50
2022-09-23T05:11:50.163Z,11.00
2022-09-23T05:12:59.042Z,8.00
2022-09-23T05:14:06.645Z,8.60
2022-09-23T05:15:16.135Z,6.80
2022-09-23T05:16:27.059Z,9.20
2022-09-23T05:17:35.020Z,10.60
2022-09-23T05:18:44.109Z,10.70
2022-09-23T05:19:51.746Z,7.70
2022-09-23T05:20:58.841Z,11.00
2022-09-23T05:22:07.457Z,9.00
2022-09-23T05:23:14.805Z,12.30
2022-09-23T05:24:22.668Z,8.50
2022-09-23T05:25:29.947Z,8.90
2022-09-23T05:26:37.135Z,12.30
2022-09-23T05:27:44.410Z,7.60
2022-09-23T05:28:52.152Z,9.40
2022-09-23T05:29:59.875Z,11.60
2022-09-23T05:31:08.251Z,10.70
2022-09-23T05:32:16.895Z,8.70
2022-09-23T05:33:24.479Z,8.10
2022-09-23T05:34:32.049Z,9.00
2022-09-23T05:35:39.492Z,8.10
2022-09-23T05:36:47.159Z,7.90
2022-09-23T05:37:54.251Z,10.40
2022-09-23T05:39:01.431Z,8.50
2022-09-23T05:40:09.182Z,8.70
2022-09-23T05:41:16.598Z,10.80
2022-09-23T05:42:26.994Z,11.60
2022-09-23T05:43:34.316Z,8.70
2022-09-23T05:44:41.649Z,11.60
2022-09-23T05:45:48.930Z,7.10
2022-09-23T05:46:56.664Z,7.50
2022-09-23T05:48:04.138Z,11.30
2022-09-23T05:49:11.554Z,11.70
2022-09-23T05:50:18.891Z,10.80
2022-09-23T05:51:30.741Z,14.30
2022-09-23T05:52:38.900Z,10.20
2022-09-23T05:53:48.967Z,7.20
2022-09-23T05:54:56.294Z,9.20
2022-09-23T05:57:11.829Z,10.70
2022-09-23T05:58:19.015Z,10.40
2022-09-23T05:59:26.380Z,9.00
2022-09-23T06:00:34.374Z,10.50
2022-09-23T06:01:42.360Z,10.40
2022-09-23T06:02:50.672Z,7.80
2022-09-23T06:03:58.686Z,10.30
2022-09-23T06:05:05.883Z,9.20
2022-09-23T06:06:15.872Z,8.60
2022-09-23T06:07:23.403Z,9.10
2022-09-23T06:08:30.665Z,7.70
2022-09-23T06:09:38.351Z,7.60
2022-09-23T06:10:47.153Z,9.10
2022-09-23T06:11:57.468Z,8.50
2022-09-23T06:13:04.704Z,8.30
2022-09-23T06:14:14.145Z,10.30
2022-09-23T06:15:21.450Z,11.00
2022-09-23T06:16:28.840Z,8.40
2022-09-23T06:17:36.224Z,9.10
2022-09-23T06:18:44.271Z,9.30
2022-09-23T06:19:51.538Z,7.90
2022-09-23T06:21:01.751Z,14.50
2022-09-23T06:22:09.073Z,8.30
2022-09-23T06:23:16.743Z,10.20
2022-09-23T06:24:28.523Z,9.40
2022-09-23T06:25:42.230Z,9.60
2022-09-23T06:26:50.422Z,13.30
2022-09-23T06:27:58.502Z,10.50
2022-09-23T06:29:11.224Z,12.10
2022-09-23T06:30:24.874Z,11.00
2022-09-23T06:31:32.545Z,9.10
2022-09-23T06:32:40.482Z,13.40
2022-09-23T06:33:48.657Z,9.10
2022-09-23T06:34:56.576Z,7.40
2022-09-23T06:36:05.618Z,6.80
2022-09-23T06:37:19.910Z,10.00
2022-09-23T06:38:28.518Z,8.70
2022-09-23T06:39:36.590Z,9.70
2022-09-23T06:40:45.570Z,9.50
2022-09-23T06:41:53.015Z,11.70
2022-09-23T06:43:02.001Z,8.20
2022-09-23T06:44:09.527Z,10.20
2022-09-23T06:45:18.125Z,10.40
2022-09-23T06:46:26.076Z,10.30
2022-09-23T06:47:33.966Z,10.70
2022-09-23T06:48:45.924Z,14.90
2022-09-23T06:49:54.055Z,14.00
2022-09-23T06:51:03.619Z,9.90
2022-09-23T06:52:11.387Z,12.70
2022-09-23T06:53:18.938Z,8.90
2022-09-23T06:54:29.718Z,9.60
2022-09-23T06:55:37.376Z,10.70
2022-09-23T06:56:49.015Z,10.70
2022-09-23T06:57:58.059Z,13.20
2022-09-23T06:59:05.088Z,11.20
2022-09-23T07:00:13.286Z,8.40
2022-09-23T07:01:21.685Z,10.40
2022-09-23T07:02:29.856Z,9.20
2022-09-23T07:03:37.812Z,10.00
2022-09-23T07:04:45.505Z,10.10
2022-09-23T07:05:56.462Z,9.70
2022-09-23T07:07:04.144Z,8.40
2022-09-23T07:08:11.796Z,10.40
2022-09-23T07:09:19.358Z,12.90
2022-09-23T07:10:28.590Z,8.40
2022-09-23T07:11:36.309Z,10.00
2022-09-23T07:12:44.480Z,10.20
2022-09-23T07:13:52.127Z,11.50
2022-09-23T07:14:59.289Z,12.80
2022-09-23T07:16:06.778Z,12.30
2022-09-23T07:17:14.354Z,13.30
2022-09-23T07:18:22.132Z,11.50
2022-09-23T07:19:29.470Z,8.90
2022-09-23T07:20:37.652Z,11.40
2022-09-23T07:21:45.089Z,15.00
2022-09-23T07:22:55.356Z,12.20
2022-09-23T07:24:02.676Z,8.30
2022-09-23T07:25:11.109Z,10.30
2022-09-23T07:26:21.370Z,14.50
2022-09-23T07:27:29.156Z,9.40
2022-09-23T07:28:38.198Z,9.60
2022-09-23T07:29:48.801Z,18.20
2022-09-23T07:31:00.382Z,17.90
2022-09-23T07:32:13.635Z,12.40
2022-09-23T07:33:31.584Z,15.70
2022-09-23T07:34:40.024Z,11.80
2022-09-23T07:35:47.466Z,12.90
2022-09-23T07:36:56.195Z,11.40
2022-09-23T07:38:04.004Z,10.90
2022-09-23T07:39:12.725Z,11.40
2022-09-23T07:40:21.133Z,11.10
2022-09-23T07:41:30.211Z,10.70
2022-09-23T07:42:37.454Z,16.20
2022-09-23T07:43:45.555Z,9.60
2022-09-23T07:44:53.865Z,12.10
2022-09-23T07:46:03.988Z,10.40
2022-09-23T07:47:11.600Z,15.40
2022-09-23T07:48:22.019Z,8.80
2022-09-23T07:49:29.462Z,9.60
2022-09-23T07:50:36.674Z,11.10
2022-09-23T07:51:47.221Z,12.60
2022-09-23T07:52:54.425Z,13.80
2022-09-23T07:54:01.755Z,11.30
2022-09-23T07:55:09.202Z,12.80
2022-09-23T07:56:17.128Z,10.30
2022-09-23T07:57:26.615Z,9.40
2022-09-23T07:58:36.183Z,11.30
2022-09-23T07:59:45.914Z,14.00
2022-09-23T08:00:56.059Z,11.10
2022-09-23T08:02:03.893Z,11.00
2022-09-23T08:03:12.995Z,12.80
2022-09-23T08:04:26.733Z,20.30
2022-09-23T08:05:35.982Z,11.60
2022-09-23T08:06:46.464Z,12.80
2022-09-23T08:07:54.817Z,11.70
2022-09-23T08:09:03.976Z,9.40
2022-09-23T08:10:13.253Z,15.00
2022-09-23T08:11:21.639Z,10.30
2022-09-23T08:12:31.082Z,16.10
2022-09-23T08:13:39.945Z,13.10
2022-09-23T08:14:49.054Z,12.50
2022-09-23T08:15:57.972Z,14.90
2022-09-23T08:17:06.575Z,13.40
2022-09-23T08:18:14.557Z,9.50
2022-09-23T08:19:22.674Z,13.90
2022-09-23T08:20:49.432Z,13.80
2022-09-23T08:21:57.043Z,13.00
2022-09-23T08:23:04.681Z,11.80
2022-09-23T08:24:15.442Z,15.60
2022-09-23T08:25:24.147Z,11.90
2022-09-23T08:26:32.787Z,13.60
2022-09-23T08:27:41.003Z,13.80
2022-09-23T08:28:49.624Z,13.10
2022-09-23T08:29:57.003Z,10.10
2022-09-23T08:31:05.438Z,11.10
2022-09-23T08:32:13.106Z,13.70
2022-09-23T08:33:23.741Z,10.50
2022-09-23T08:34:31.671Z,16.00
2022-09-23T08:35:39.565Z,12.50
2022-09-23T08:36:47.567Z,12.30
2022-09-23T08:37:56.572Z,12.00
2022-09-23T08:39:03.809Z,8.80
2022-09-23T08:40:11.598Z,10.00
2022-09-23T08:41:31.997Z,8.40
2022-09-23T08:42:39.814Z,9.20
2022-09-23T08:43:52.270Z,16.10
2022-09-23T08:45:04.098Z,11.70
2022-09-23T08:46:13.691Z,12.70
2022-09-23T08:47:34.810Z,9.40
2022-09-23T08:48:46.484Z,12.60
2022-09-23T08:50:05.265Z,9.40
2022-09-23T08:51:17.601Z,10.30
2022-09-23T08:53:06.727Z,10.00
2022-09-23T08:54:14.630Z,13.70
2022-09-23T08:55:39.755Z,12.00
2022-09-23T08:56:48.260Z,10.00
2022-09-23T08:58:25.405Z,11.10
2022-09-23T08:59:39.821Z,11.80
2022-09-23T09:00:49.969Z,13.40
2022-09-23T09:02:07.995Z,9.50
2022-09-23T09:03:25.835Z,9.00
2022-09-23T09:04:44.125Z,11.40
2022-09-23T09:05:54.385Z,9.10
2022-09-23T09:08:43.290Z,9.00
2022-09-23T09:09:54.804Z,10.20
2022-09-23T09:11:02.259Z,8.70
2022-09-23T09:12:23.724Z,9.90
2022-09-23T09:13:36.395Z,11.60
2022-09-23T09:15:14.469Z,15.20
2022-09-23T09:16:48.280Z,8.50
2022-09-23T09:18:04.111Z,9.60
2022-09-23T09:19:35.293Z,12.00
2022-09-23T09:21:00.383Z,9.90
2022-09-23T09:22:08.317Z,10.60
2022-09-23T09:23:21.732Z,14.30
2022-09-23T09:24:36.285Z,13.50
2022-09-23T09:25:47.992Z,10.00
2022-09-23T09:26:55.816Z,9.20
2022-09-23T09:28:03.521Z,14.90
2022-09-23T09:29:34.438Z,9.10
2022-09-23T09:30:48.218Z,10.00
2022-09-23T09:31:58.861Z,10.20
2022-09-23T09:33:07.991Z,7.80
2022-09-23T09:34:42.755Z,8.50
2022-09-23T09:36:10.545Z,7.70
2022-09-23T09:37:35.007Z,11.00
2022-09-23T09:38:42.496Z,11.80
2022-09-23T09:39:50.649Z,7.60
2022-09-23T09:40:57.569Z,11.80
2022-09-23T09:42:05.595Z,15.60
2022-09-23T09:43:13.227Z,11.50
2022-09-23T09:45:00.956Z,13.20
2022-09-23T09:46:30.544Z,12.10
2022-09-23T09:47:59.443Z,11.00
2022-09-23T09:49:31.306Z,11.40
2022-09-23T09:50:54.720Z,9.40
2022-09-23T09:52:27.337Z,11.90
2022-09-23T09:53:37.068Z,17.50
2022-09-23T09:54:45.662Z,13.50
2022-09-23T09:56:32.731Z,11.80
2022-09-23T09:58:03.260Z,14.30
2022-09-23T09:59:17.240Z,11.20
2022-09-23T10:00:26.875Z,12.00
2022-09-23T10:01:35.970Z,11.60
2022-09-23T10:02:43.558Z,11.80
2022-09-23T10:03:54.354Z,12.10
2022-09-23T10:05:08.294Z,10.40
2022-09-23T10:06:22.130Z,11.30
2022-09-23T10:07:32.023Z,10.10
2022-09-23T10:08:40.381Z,15.60
2022-09-23T10:09:52.284Z,11.90
2022-09-23T10:11:16.733Z,11.60
2022-09-23T10:12:25.956Z,15.30
2022-09-23T10:13:33.833Z,12.30
2022-09-23T10:14:41.777Z,12.90
2022-09-23T10:15:49.594Z,12.70
2022-09-23T10:17:06.941Z,15.60
2022-09-23T10:18:39.549Z,12.50
2022-09-23T10:19:49.733Z,15.30
2022-09-23T10:21:10.113Z,10.40
2022-09-23T10:22:27.759Z,17.10
2022-09-23T10:23:35.819Z,8.80
2022-09-23T10:24:43.626Z,17.70
2022-09-23T10:26:01.831Z,12.20
2022-09-23T10:27:10.653Z,10.20
2022-09-23T10:28:44.538Z,13.50
2022-09-23T10:29:52.505Z,9.70
2022-09-23T10:31:30.550Z,11.20
2022-09-23T10:32:46.357Z,15.20
2022-09-23T10:34:02.335Z,17.90
2022-09-23T10:35:15.278Z,16.20
2022-09-23T10:36:22.944Z,13.50
2022-09-23T10:37:43.451Z,17.00
2022-09-23T10:38:52.340Z,11.60
2022-09-23T10:40:18.198Z,9.80
2022-09-23T10:41:57.990Z,12.30
2022-09-23T10:43:32.783Z,9.20
2022-09-23T10:45:28.522Z,9.90
2022-09-23T10:46:41.434Z,10.80
2022-09-23T10:47:59.542Z,13.10
2022-09-23T10:49:14.047Z,11.00
2022-09-23T10:50:40.119Z,9.90
2022-09-23T10:52:12.494Z,20.60
2022-09-23T10:53:27.985Z,11.00
2022-09-23T10:54:44.927Z,10.10
2022-09-23T10:55:55.678Z,16.90
2022-09-23T10:57:44.500Z,8.50
2022-09-23T10:59:16.624Z,11.90
2022-09-23T11:01:00.896Z,10.70
2022-09-23T11:02:25.365Z,15.80
2022-09-23T11:04:03.068Z,15.20
2022-09-23T11:05:13.751Z,12.30
2022-09-23T11:06:45.347Z,14.20
2022-09-23T11:08:09.431Z,15.30
2022-09-23T11:09:44.747Z,14.10
2022-09-23T11:10:57.621Z,13.30
2022-09-23T11:12:23.425Z,11.10
2022-09-23T11:13:54.875Z,15.20
2022-09-23T11:15:06.334Z,13.80
2022-09-23T11:16:27.521Z,12.70
2022-09-23T11:17:53.084Z,11.30
2022-09-23T11:19:24.675Z,14.30
2022-09-23T11:20:56.798Z,13.80
2022-09-23T11:22:23.277Z,17.90
2022-09-23T11:23:50.068Z,12.30
2022-09-23T11:25:48.851Z,17.80
2022-09-23T11:27:14.234Z,13.40
2022-09-23T11:28:35.763Z,19.70
2022-09-23T11:29:50.207Z,12.00
2022-09-23T11:31:13.841Z,16.00
2022-09-23T11:32:44.020Z,18.00
2022-09-23T11:34:17.753Z,12.40
2022-09-23T11:36:10.331Z,14.10
2022-09-23T11:37:22.729Z,14.50
2022-09-23T11:38:42.355Z,14.40
2022-09-23T11:39:59.470Z,12.10
2022-09-23T11:41:30.546Z,13.90
2022-09-23T11:42:42.131Z,17.20
2022-09-23T11:43:53.744Z,18.40
2022-09-23T11:45:09.696Z,16.20
2022-09-23T11:46:37.608Z,20.30
2022-09-23T11:47:54.293Z,18.40
2022-09-23T11:49:18.495Z,16.80
2022-09-23T11:50:46.804Z,16.20
2022-09-23T11:52:11.297Z,16.10
2022-09-23T11:53:47.960Z,16.70
2022-09-23T11:55:27.764Z,16.30
2022-09-23T11:56:42.394Z,16.00
2022-09-23T11:58:02.869Z,15.00
2022-09-23T11:59:40.013Z,17.70
2022-09-23T12:01:00.508Z,18.20
2022-09-23T12:02:30.305Z,17.90
2022-09-23T12:04:17.620Z,17.40
2022-09-23T12:05:34.614Z,25.20
2022-09-23T12:06:50.361Z,17.20
2022-09-23T12:08:07.831Z,22.00
2022-09-23T12:09:58.529Z,14.20
2022-09-23T12:11:27.681Z,21.30
2022-09-23T12:13:02.901Z,16.60
2022-09-23T12:14:13.370Z,14.90
2022-09-23T12:15:47.189Z,21.40
2022-09-23T12:17:35.812Z,17.30
2022-09-23T12:18:50.827Z,19.10
2022-09-23T12:20:34.793Z,13.70
2022-09-23T12:22:34.446Z,23.40
2022-09-23T12:24:19.194Z,17.00
2022-09-23T12:25:48.437Z,21.10
2022-09-23T12:26:58.418Z,15.70
2022-09-23T12:28:08.314Z,15.70
2022-09-23T12:29:15.971Z,14.30
2022-09-23T12:30:28.575Z,21.20
2022-09-23T12:31:41.121Z,17.10
2022-09-23T12:32:50.891Z,20.30
2022-09-23T12:33:58.600Z,14.50
2022-09-23T12:35:06.048Z,20.20
2022-09-23T12:36:13.767Z,22.40
2022-09-23T12:37:35.188Z,17.60
2022-09-23T12:39:16.726Z,20.00
2022-09-23T12:40:33.162Z,16.40
2022-09-23T12:41:44.015Z,15.50
2022-09-23T12:42:52.456Z,20.10
2022-09-23T12:44:16.399Z,17.30
2022-09-23T12:45:36.403Z,12.70
2022-09-23T12:46:47.416Z,18.90
2022-09-23T12:47:54.863Z,14.70
2022-09-23T12:49:03.124Z,19.60
2022-09-23T12:50:47.052Z,16.40
2022-09-23T12:52:13.053Z,15.10
2022-09-23T12:53:38.842Z,16.30
2022-09-23T12:54:47.280Z,18.40
2022-09-23T12:55:55.738Z,17.70
2022-09-23T12:57:03.272Z,22.80
2022-09-23T12:58:45.656Z,19.00
2022-09-23T12:59:58.592Z,14.70
2022-09-23T13:01:10.247Z,18.10
2022-09-23T13:02:29.716Z,17.30
2022-09-23T13:03:56.021Z,17.80
2022-09-23T13:05:34.211Z,15.80
2022-09-23T13:06:50.405Z,19.70
2022-09-23T13:08:02.412Z,31.50
2022-09-23T13:09:26.440Z,103.00
2022-09-23T13:10:49.650Z,65.60
2022-09-23T13:12:01.412Z,52.70
2022-09-23T13:13:08.843Z,38.10
2022-09-23T13:14:21.951Z,33.30
2022-09-23T13:15:35.261Z,39.00
2022-09-23T13:16:47.182Z,96.60
2022-09-23T13:17:54.856Z,44.20
2022-09-23T13:19:05.820Z,36.10
2022-09-23T13:20:23.314Z,39.90
2022-09-23T13:21:47.334Z,39.80
2022-09-23T13:23:02.068Z,34.40
2022-09-23T13:24:16.659Z,28.60
2022-09-23T13:25:30.252Z,29.10
2022-09-23T13:26:38.757Z,23.90
2022-09-23T13:27:47.564Z,25.00
2022-09-23T13:28:58.985Z,29.60
2022-09-23T13:30:09.590Z,37.90
2022-09-23T13:31:18.448Z,31.60
2022-09-23T13:32:35.228Z,34.70
2022-09-23T13:34:02.092Z,18.60
2022-09-23T13:35:17.413Z,28.30
2022-09-23T13:36:25.393Z,29.40
2022-09-23T13:37:47.648Z,24.10
2022-09-23T13:38:55.384Z,20.30
2022-09-23T13:40:25.938Z,24.30
2022-09-23T13:41:34.750Z,15.70
2022-09-23T13:42:42.405Z,18.70
2022-09-23T13:44:00.221Z,18.30
2022-09-23T13:45:08.007Z,20.60
2022-09-23T13:46:25.519Z,23.40
2022-09-23T13:47:33.493Z,18.60
2022-09-23T13:48:41.067Z,40.70
2022-09-23T13:49:49.619Z,35.10
2022-09-23T13:50:57.601Z,25.70
2022-09-23T13:52:05.204Z,19.00
2022-09-23T13:53:13.626Z,19.40
2022-09-23T13:54:32.429Z,19.10
2022-09-23T13:55:40.929Z,20.00
2022-09-23T13:56:50.737Z,18.00
2022-09-23T13:58:06.798Z,15.90
2022-09-23T13:59:40.525Z,19.80
2022-09-23T14:00:49.933Z,18.30
2022-09-23T14:02:14.667Z,18.50
2022-09-23T14:03:33.780Z,22.10
2022-09-23T14:04:46.187Z,20.30
2022-09-23T14:05:54.179Z,22.00
2022-09-23T14:07:01.783Z,18.30
2022-09-23T14:08:10.068Z,21.20
2022-09-23T14:09:18.358Z,22.00
2022-09-23T14:10:28.604Z,17.80
2022-09-23T14:11:36.711Z,21.80
2022-09-23T14:12:48.080Z,21.10
2022-09-23T14:13:59.295Z,20.10
2022-09-23T14:15:10.387Z,17.80
2022-09-23T14:16:17.801Z,19.80
2022-09-23T14:17:25.405Z,18.30
2022-09-23T14:18:38.169Z,19.70
2022-09-23T14:19:45.377Z,15.10
2022-09-23T14:20:52.554Z,17.20
2022-09-23T14:22:00.829Z,18.60
2022-09-23T14:23:09.304Z,21.30
2022-09-23T14:24:23.109Z,22.80
2022-09-23T14:25:30.422Z,21.90
2022-09-23T14:26:37.688Z,19.30
2022-09-23T14:27:45.014Z,28.50
2022-09-23T14:28:52.172Z,20.10
2022-09-23T14:29:59.275Z,24.10
2022-09-23T14:31:06.659Z,20.90
2022-09-23T14:32:15.577Z,19.40
2022-09-23T14:33:49.060Z,18.90
2022-09-23T14:35:02.389Z,23.90
2022-09-23T14:36:36.667Z,21.40
2022-09-23T14:38:03.072Z,21.90
2022-09-23T14:39:12.257Z,17.70
2022-09-23T14:40:29.856Z,20.60
2022-09-23T14:41:41.566Z,17.30
2022-09-23T14:42:58.800Z,24.80
2022-09-23T14:44:06.188Z,16.60
2022-09-23T14:45:19.101Z,16.30
2022-09-23T14:46:29.787Z,21.50
2022-09-23T14:47:37.578Z,22.40
2022-09-23T14:48:44.846Z,22.80
2022-09-23T14:50:12.158Z,20.60
2022-09-23T14:51:19.356Z,26.00
2022-09-23T14:52:26.703Z,28.30
2022-09-23T14:53:44.753Z,25.20
2022-09-23T14:54:52.722Z,22.30
2022-09-23T14:56:23.276Z,26.90
2022-09-23T14:57:33.774Z,20.80
2022-09-23T14:58:52.617Z,19.20
2022-09-23T15:00:11.083Z,27.80
2022-09-23T15:01:28.916Z,23.00
2022-09-23T15:02:37.829Z,30.30
2022-09-23T15:03:51.479Z,19.90
2022-09-23T15:05:18.312Z,24.20
2022-09-23T15:06:25.583Z,18.20
2022-09-23T15:07:32.757Z,28.60
2022-09-23T15:08:40.683Z,22.00
2022-09-23T15:09:47.926Z,20.80
2022-09-23T15:10:55.325Z,26.60
2022-09-23T15:12:03.980Z,27.60
2022-09-23T15:13:14.841Z,20.40
2022-09-23T15:14:37.324Z,29.00
2022-09-23T15:15:46.751Z,31.20
2022-09-23T15:16:53.953Z,21.20
2022-09-23T15:18:15.370Z,29.70
2022-09-23T15:19:22.675Z,26.00
2022-09-23T15:20:29.871Z,25.60
2022-09-23T15:21:42.302Z,26.30
2022-09-23T15:22:55.019Z,26.40
2022-09-23T15:24:02.221Z,27.10
2022-09-23T15:25:31.570Z,28.20
2022-09-23T15:26:48.473Z,22.60
2022-09-23T15:27:59.158Z,23.70
2022-09-23T15:29:08.948Z,18.80
2022-09-23T15:30:18.238Z,28.40
2022-09-23T15:31:27.675Z,20.20
2022-09-23T15:32:35.023Z,23.10
2022-09-23T15:33:42.088Z,23.20
2022-09-23T15:34:51.604Z,24.20
2022-09-23T15:35:58.895Z,22.60
2022-09-23T15:37:06.490Z,25.70
2022-09-23T15:38:13.453Z,23.10
2022-09-23T15:39:20.439Z,16.20
2022-09-23T15:40:32.064Z,18.10
2022-09-23T15:41:39.372Z,20.30
2022-09-23T15:42:54.118Z,20.30
2022-09-23T15:44:14.986Z,25.70
2022-09-23T15:45:33.189Z,21.70
2022-09-23T15:46:41.724Z,17.10
2022-09-23T15:47:50.821Z,17.70
2022-09-23T15:49:11.050Z,23.50
2022-09-23T15:50:18.752Z,22.50
2022-09-23T15:51:26.316Z,17.60
2022-09-23T15:52:38.275Z,23.00
2022-09-23T15:53:45.453Z,20.80
2022-09-23T15:54:53.328Z,23.70
2022-09-23T15:56:00.740Z,24.30
2022-09-23T15:57:08.053Z,26.20
2022-09-23T15:58:15.172Z,25.00
2022-09-23T15:59:22.898Z,21.20
2022-09-23T16:00:30.278Z,25.10
2022-09-23T16:01:37.960Z,18.20
2022-09-23T16:02:48.670Z,20.30
2022-09-23T16:03:56.954Z,19.80
2022-09-23T16:05:03.945Z,17.80
2022-09-23T16:06:13.311Z,19.80
2022-09-23T16:07:21.131Z,18.30
2022-09-23T16:08:28.757Z,20.70
2022-09-23T16:09:36.122Z,19.00